Strona główna
METAR-TAF:

METAR-TAF

Lotnisko :

Calais, Francja

Szerokość geograficzna: 50-57-39N, Długość geograficzna: 001-57-05E, wysokość: 4 m

Aktualna obserwacja pogody

Raport powstał 19 minut temu, godzina 11:30 UTC
Wiatr 8 kt od wschód
Temperatura 9°C
Wilgotność 93%
Ciśnienie 1018 hPa
Widzialność: 6000 m
Zachmurzenie całkowite na wysokości 3500 ft

METAR: LFAC 271130Z AUTO 10008KT 6000 OVC035 09/08 Q1018

czas: 12:49 (11:49 UTC)


TAF: brakujący

Obserwacja i prognoza pogody dla ponad 4000 lotnisk (raport METAR i TAF).

Dostępne stacje oznaczono żółtymi i czerwonymi punktami na mapie.

Najedź kursorem aby zobaczyć nazwę stacji.

Kliknij aby zobaczyć obserwacje i prognozy pogody.

Aby zmienić mapę: kliknij na zielony przycisk z czarnym krzyżykiem, aby powiększyć; na zielony przycisk z myślnikiem, aby pomniejszyć; na zielone strzałki, aby przejść do map sąsiednich.


METAR-TAF: